Time;durP1;ratioP1;P1;durP2;ratioP2;P2;SDS_P1;SDS_P2;PMS_P1;PMS_P2;Temp;Humidity;BMP_temperature;BMP_pressure;BME280_temperature;BME280_humidity;BME280_pressure;Samples;Min_cycle;Max_cycle;Signal;HPM_P1;HPM_P2
2021/08/02 00:02:33;;;;;;;0.65;0.10;;;26.40;47.10;;;;;;5047588;28;20084;-43
2021/08/02 00:05:04;;;;;;;0.17;0.15;;;26.40;47.10;;;;;;5047557;28;20037;-43
2021/08/02 00:07:34;;;;;;;1.65;0.10;;;26.40;47.10;;;;;;5047745;28;20053;-40
2021/08/02 00:10:08;;;;;;;0.77;0.30;;;26.40;47.10;;;;;;5047077;28;20134;-42
2021/08/02 00:12:41;;;;;;;0.20;0.20;;;26.40;47.10;;;;;;5043734;28;20053;-43
2021/08/02 00:15:10;;;;;;;0.98;0.10;;;26.40;47.10;;;;;;5047350;28;20048;-41
2021/08/02 00:17:40;;;;;;;2.55;0.10;;;26.40;47.10;;;;;;5047146;28;20437;-40
2021/08/02 00:20:10;;;;;;;0.43;0.20;;;26.40;47.10;;;;;;5043919;28;20045;-40
2021/08/02 00:22:39;;;;;;;0.10;0.10;;;26.40;47.20;;;;;;5034695;28;20044;-40
2021/08/02 00:25:07;;;;;;;0.20;0.20;;;26.40;47.10;;;;;;5047088;28;20037;-43
2021/08/02 00:27:34;;;;;;;3.33;0.85;;;26.30;47.10;;;;;;5048374;28;20044;-40
2021/08/02 00:30:02;;;;;;;0.40;0.40;;;26.40;47.20;;;;;;5036378;28;20049;-41
2021/08/02 00:32:29;;;;;;;0.30;0.10;;;26.30;47.10;;;;;;5035386;28;20127;-40
2021/08/02 00:34:56;;;;;;;0.10;0.10;;;26.30;47.10;;;;;;5037244;28;20056;-41
2021/08/02 00:37:32;;;;;;;0.15;0.10;;;26.30;47.10;;;;;;5047112;28;20037;-40
2021/08/02 00:40:14;;;;;;;0.15;0.10;;;26.30;47.10;;;;;;5030326;28;20069;-40
2021/08/02 00:42:59;;;;;;;0.20;0.10;;;26.30;47.20;;;;;;5044003;28;20423;-42
2021/08/02 00:45:30;;;;;;;0.10;0.10;;;26.30;47.10;;;;;;5034182;28;20057;-40
2021/08/02 00:48:02;;;;;;;0.25;0.10;;;26.30;47.20;;;;;;5035248;28;20049;-41
2021/08/02 00:50:32;;;;;;;0.32;0.10;;;26.30;47.20;;;;;;5040251;28;20049;-41
2021/08/02 00:53:02;;;;;;;0.22;0.10;;;26.30;47.20;;;;;;5044719;28;20040;-42
2021/08/02 00:55:34;;;;;;;0.40;0.10;;;26.30;47.20;;;;;;5035392;28;20114;-40
2021/08/02 00:58:04;;;;;;;0.30;0.10;;;26.30;47.20;;;;;;5046732;28;20048;-42
2021/08/02 01:00:31;;;;;;;0.95;0.10;;;26.30;47.20;;;;;;5033324;28;20045;-43
2021/08/02 01:03:04;;;;;;;0.25;0.10;;;26.30;47.20;;;;;;5044980;28;20076;-39
2021/08/02 01:05:36;;;;;;;0.10;0.10;;;26.30;47.20;;;;;;5046346;28;20045;-40
2021/08/02 01:08:07;;;;;;;0.17;0.10;;;26.20;47.20;;;;;;5045981;28;20110;-41
2021/08/02 01:10:43;;;;;;;0.28;0.28;;;26.30;47.20;;;;;;5046225;28;20415;-41
2021/08/02 01:13:16;;;;;;;0.10;0.10;;;26.30;47.30;;;;;;5035172;28;20525;-45
2021/08/02 01:15:45;;;;;;;0.22;0.10;;;26.20;47.20;;;;;;5042932;28;20049;-40
2021/08/02 01:18:18;;;;;;;0.30;0.10;;;26.20;47.20;;;;;;5034783;28;20747;-45
2021/08/02 01:20:49;;;;;;;0.88;0.68;;;26.20;47.20;;;;;;5049807;28;20053;-40
2021/08/02 01:23:20;;;;;;;0.30;0.10;;;26.20;47.20;;;;;;5038204;28;20041;-44
2021/08/02 01:26:17;;;;;;;0.10;0.10;;;26.20;47.20;;;;;;5045140;28;20045;-43
2021/08/02 01:29:03;;;;;;;;;;;26.30;47.30;;;;;;5046775;28;20446;-45
2021/08/02 01:31:31;;;;;;;0.13;0.13;;;26.20;47.30;;;;;;5046185;28;20437;-43
2021/08/02 01:33:59;;;;;;;0.20;0.20;;;26.10;47.40;;;;;;5046257;28;20086;-40
2021/08/02 01:36:28;;;;;;;0.08;0.08;;;26.20;47.40;;;;;;5047415;28;20798;-44
2021/08/02 01:38:59;;;;;;;0.52;0.32;;;26.20;47.40;;;;;;5035022;28;20075;-42
2021/08/02 01:41:31;;;;;;;0.15;0.10;;;26.20;47.40;;;;;;5041560;28;20055;-40
2021/08/02 01:44:00;;;;;;;0.73;0.73;;;26.20;47.40;;;;;;5045134;28;20045;-40
2021/08/02 01:46:36;;;;;;;0.65;0.20;;;26.20;47.40;;;;;;5059053;28;20107;-41
2021/08/02 01:49:11;;;;;;;0.10;0.10;;;26.20;47.40;;;;;;5045957;28;20059;-41
2021/08/02 01:51:41;;;;;;;0.10;0.10;;;26.20;48.00;;;;;;5047254;28;20522;-41
2021/08/02 01:54:27;;;;;;;0.10;0.10;;;26.20;47.40;;;;;;5046180;28;20128;-40
2021/08/02 01:57:01;;;;;;;0.20;0.10;;;26.20;47.40;;;;;;5041190;28;20131;-41
2021/08/02 01:59:38;;;;;;;0.15;0.10;;;26.10;47.30;;;;;;5034378;28;20402;-40
2021/08/02 02:02:09;;;;;;;0.10;0.10;;;26.10;47.40;;;;;;5036924;28;20472;-41
2021/08/02 02:04:40;;;;;;;0.20;0.10;;;26.10;47.40;;;;;;5044355;28;20045;-45
2021/08/02 02:07:13;;;;;;;0.45;0.10;;;26.10;47.40;;;;;;5027738;28;20049;-49
2021/08/02 02:09:58;;;;;;;1.77;0.10;;;26.10;47.40;;;;;;5039725;28;20081;-43
2021/08/02 02:12:26;;;;;;;0.20;0.20;;;26.10;47.40;;;;;;5035286;28;20053;-40
2021/08/02 02:14:56;;;;;;;0.17;0.10;;;26.10;47.50;;;;;;5045395;28;20472;-40
2021/08/02 02:17:27;;;;;;;0.10;0.10;;;26.10;47.50;;;;;;5040015;28;20521;-42
2021/08/02 02:19:56;;;;;;;0.35;0.15;;;26.10;47.50;;;;;;5033800;28;20036;-43
2021/08/02 02:22:25;;;;;;;0.20;0.20;;;26.10;47.50;;;;;;5029884;28;20091;-41
2021/08/02 02:24:55;;;;;;;0.10;0.10;;;26.10;47.50;;;;;;5029603;28;20049;-43
2021/08/02 02:27:29;;;;;;;0.30;0.30;;;26.10;47.50;;;;;;5027209;28;20515;-42
2021/08/02 02:30:08;;;;;;;0.82;0.10;;;26.10;47.50;;;;;;5045067;28;20045;-43
2021/08/02 02:32:37;;;;;;;0.30;0.10;;;26.10;47.50;;;;;;5043849;28;20053;-45
2021/08/02 02:35:08;;;;;;;0.10;0.10;;;26.10;47.60;;;;;;5043350;28;20046;-41
2021/08/02 02:37:37;;;;;;;0.32;0.20;;;26.10;47.60;;;;;;5047478;28;20049;-40
2021/08/02 02:40:08;;;;;;;0.25;0.10;;;26.10;47.60;;;;;;5048354;28;20045;-42
2021/08/02 02:42:37;;;;;;;0.10;0.10;;;26.10;47.60;;;;;;5050317;28;20056;-41
2021/08/02 02:45:09;;;;;;;0.90;0.28;;;26.00;47.50;;;;;;5049097;28;20037;-41
2021/08/02 02:47:38;;;;;;;0.13;0.13;;;26.00;47.50;;;;;;5064438;28;20122;-43
2021/08/02 02:50:07;;;;;;;0.40;0.10;;;26.00;47.50;;;;;;5048625;28;20080;-45
2021/08/02 02:52:36;;;;;;;0.10;0.10;;;26.00;47.50;;;;;;5047479;28;20772;-44
2021/08/02 02:55:06;;;;;;;0.10;0.10;;;26.00;47.60;;;;;;5048780;28;20490;-44
2021/08/02 02:57:37;;;;;;;0.52;0.10;;;26.00;47.60;;;;;;5048529;28;20375;-40
2021/08/02 03:00:07;;;;;;;0.10;0.10;;;26.00;47.60;;;;;;5042780;28;20040;-45
2021/08/02 03:02:36;;;;;;;0.95;0.10;;;26.00;47.60;;;;;;5043094;28;20045;-43
2021/08/02 03:05:08;;;;;;;0.10;0.10;;;26.00;47.60;;;;;;5044840;28;20343;-40
2021/08/02 03:07:37;;;;;;;0.25;0.10;;;26.00;47.70;;;;;;5035973;28;20132;-41
2021/08/02 03:10:08;;;;;;;0.20;0.15;;;26.00;47.70;;;;;;5031303;28;20052;-41
2021/08/02 03:12:35;;;;;;;0.38;0.20;;;26.00;47.60;;;;;;5049906;28;20098;-41
2021/08/02 03:15:03;;;;;;;0.80;0.10;;;26.00;47.60;;;;;;5048591;28;20114;-43
2021/08/02 03:17:31;;;;;;;0.10;0.10;;;25.90;47.60;;;;;;5048488;28;20586;-42
2021/08/02 03:19:59;;;;;;;0.10;0.10;;;25.90;47.60;;;;;;5046690;28;20047;-42
2021/08/02 03:22:31;;;;;;;0.10;0.10;;;25.90;47.60;;;;;;5034635;28;20422;-42
2021/08/02 03:25:10;;;;;;;0.17;0.10;;;26.00;47.70;;;;;;5049084;28;20037;-41
2021/08/02 03:27:42;;;;;;;0.10;0.00;;;26.00;47.70;;;;;;5034215;28;20538;-40
2021/08/02 03:30:11;;;;;;;0.10;0.10;;;25.90;47.70;;;;;;5034617;28;20446;-40
2021/08/02 03:32:42;;;;;;;0.15;0.10;;;25.90;47.70;;;;;;5036895;28;20045;-41
2021/08/02 03:35:11;;;;;;;0.13;0.10;;;25.90;47.70;;;;;;5039910;28;20049;-40
2021/08/02 03:37:39;;;;;;;0.20;0.10;;;25.90;47.70;;;;;;5048475;28;20063;-40
2021/08/02 03:40:10;;;;;;;0.75;0.10;;;25.90;47.70;;;;;;5048255;28;20455;-40
2021/08/02 03:42:40;;;;;;;1.75;0.10;;;25.90;47.70;;;;;;5049565;28;20505;-42
2021/08/02 03:45:08;;;;;;;1.20;0.10;;;25.90;47.70;;;;;;5048308;28;20396;-46
2021/08/02 03:47:36;;;;;;;0.20;0.10;;;25.90;47.80;;;;;;5040798;28;20049;-43
2021/08/02 03:50:04;;;;;;;2.17;0.10;;;25.90;47.70;;;;;;5038162;28;20049;-43
2021/08/02 03:52:31;;;;;;;0.30;0.10;;;25.90;47.70;;;;;;5047853;28;20044;-41
2021/08/02 03:54:59;;;;;;;0.10;0.10;;;25.90;47.70;;;;;;5031955;28;20065;-41
2021/08/02 03:57:29;;;;;;;1.00;0.10;;;25.90;47.80;;;;;;5033242;28;20095;-42
2021/08/02 03:59:56;;;;;;;1.40;0.10;;;25.90;47.80;;;;;;5046123;28;20037;-40
2021/08/02 04:02:23;;;;;;;0.65;0.65;;;25.90;47.80;;;;;;5042731;28;20041;-39
2021/08/02 04:04:50;;;;;;;0.20;0.20;;;25.80;47.70;;;;;;5036055;28;20041;-40
2021/08/02 04:07:17;;;;;;;0.10;0.10;;;25.90;47.80;;;;;;5032370;28;20040;-41
2021/08/02 04:09:44;;;;;;;0.65;0.30;;;25.90;47.80;;;;;;5048209;28;20103;-41
2021/08/02 04:12:11;;;;;;;0.10;0.10;;;25.80;47.70;;;;;;5046223;28;20045;-41
2021/08/02 04:14:39;;;;;;;0.10;0.10;;;25.80;47.70;;;;;;5058558;28;20099;-43
2021/08/02 04:17:06;;;;;;;0.60;0.60;;;25.80;47.80;;;;;;5044571;28;20174;-41
2021/08/02 04:19:34;;;;;;;0.95;0.10;;;25.80;47.80;;;;;;5034066;28;20576;-41
2021/08/02 04:22:01;;;;;;;0.40;0.10;;;25.80;47.80;;;;;;5030817;28;20076;-41
2021/08/02 04:24:28;;;;;;;0.10;0.10;;;25.80;47.80;;;;;;5034322;28;20133;-40
2021/08/02 04:26:55;;;;;;;0.10;0.10;;;25.80;47.80;;;;;;5035927;28;20049;-40
2021/08/02 04:29:22;;;;;;;0.38;0.10;;;25.80;47.80;;;;;;5040663;28;20123;-40
2021/08/02 04:31:50;;;;;;;0.10;0.10;;;25.80;47.80;;;;;;5047178;28;20174;-41
2021/08/02 04:34:17;;;;;;;0.63;0.10;;;25.80;47.80;;;;;;5047285;28;20091;-41
2021/08/02 04:36:44;;;;;;;0.10;0.10;;;25.80;47.80;;;;;;5048035;28;20185;-40
2021/08/02 04:39:11;;;;;;;0.20;0.10;;;25.80;47.90;;;;;;5046864;28;20126;-43
2021/08/02 04:41:38;;;;;;;0.08;0.08;;;25.80;47.90;;;;;;5039937;28;20651;-40
2021/08/02 04:44:06;;;;;;;0.32;0.10;;;25.80;47.90;;;;;;5035691;28;20102;-41
2021/08/02 04:46:33;;;;;;;0.10;0.10;;;25.80;47.90;;;;;;5033562;28;20124;-42
2021/08/02 04:49:01;;;;;;;1.00;0.20;;;25.70;47.80;;;;;;5031092;28;20049;-44
2021/08/02 04:51:29;;;;;;;0.40;0.10;;;25.80;47.90;;;;;;5048140;28;20128;-41
2021/08/02 04:53:55;;;;;;;0.32;0.30;;;25.70;47.80;;;;;;5036956;28;20610;-42
2021/08/02 04:56:23;;;;;;;0.85;0.10;;;25.70;47.90;;;;;;5040702;28;20055;-41
2021/08/02 04:58:50;;;;;;;0.47;0.32;;;25.80;47.90;;;;;;5046356;28;20044;-40
2021/08/02 05:01:17;;;;;;;1.33;0.20;;;25.70;47.90;;;;;;5039044;28;20121;-42
2021/08/02 05:03:44;;;;;;;0.30;0.10;;;25.70;47.90;;;;;;5032012;28;20475;-43
2021/08/02 05:06:12;;;;;;;2.90;0.30;;;25.70;47.90;;;;;;5046911;28;20044;-42
2021/08/02 05:08:39;;;;;;;0.20;0.10;;;25.70;47.90;;;;;;5045862;28;20538;-41
2021/08/02 05:11:06;;;;;;;0.80;0.10;;;25.70;47.90;;;;;;5046178;28;20064;-40
2021/08/02 05:13:34;;;;;;;0.20;0.10;;;25.80;48.00;;;;;;5040259;28;20041;-42
2021/08/02 05:16:01;;;;;;;0.10;0.10;;;25.70;47.90;;;;;;5028889;28;20082;-40
2021/08/02 05:18:28;;;;;;;0.35;0.30;;;25.70;47.90;;;;;;5033525;28;20057;-41
2021/08/02 05:20:55;;;;;;;0.68;0.10;;;25.70;47.90;;;;;;5044412;28;20119;-41
2021/08/02 05:23:23;;;;;;;0.30;0.22;;;25.70;47.90;;;;;;5040799;28;20121;-40
2021/08/02 05:25:51;;;;;;;0.10;0.10;;;25.70;48.00;;;;;;5034646;28;20071;-40
2021/08/02 05:28:20;;;;;;;1.05;0.17;;;25.70;48.00;;;;;;5030836;28;20124;-41
2021/08/02 05:30:47;;;;;;;0.77;0.20;;;25.70;48.00;;;;;;5036169;28;20052;-43
2021/08/02 05:33:14;;;;;;;0.50;0.40;;;25.70;48.00;;;;;;5034512;28;20091;-43
2021/08/02 05:35:41;;;;;;;0.20;0.20;;;25.70;47.90;;;;;;5044967;28;20063;-41
2021/08/02 05:38:08;;;;;;;0.10;0.10;;;25.70;48.00;;;;;;5045510;28;20056;-41
2021/08/02 05:40:37;;;;;;;0.52;0.20;;;25.70;47.90;;;;;;5045894;28;20047;-42
2021/08/02 05:43:04;;;;;;;0.20;0.20;;;25.70;48.00;;;;;;5046080;28;20040;-43
2021/08/02 05:45:30;;;;;;;0.10;0.10;;;25.70;48.00;;;;;;5032934;28;20503;-43
2021/08/02 05:47:58;;;;;;;0.35;0.10;;;25.70;48.00;;;;;;5044684;28;20069;-47
2021/08/02 05:50:25;;;;;;;0.20;0.10;;;25.70;48.00;;;;;;5044474;28;20136;-40
2021/08/02 05:52:52;;;;;;;0.45;0.10;;;25.70;48.00;;;;;;5045534;28;20122;-41
2021/08/02 05:55:19;;;;;;;0.22;0.20;;;25.70;48.00;;;;;;5045564;28;20465;-40
2021/08/02 05:57:48;;;;;;;0.10;0.10;;;25.70;48.00;;;;;;5030220;28;20049;-45
2021/08/02 06:00:16;;;;;;;0.10;0.10;;;25.70;48.00;;;;;;5033122;28;20129;-42
2021/08/02 06:02:43;;;;;;;0.20;0.20;;;25.70;48.00;;;;;;5042094;28;20506;-40
2021/08/02 06:05:11;;;;;;;0.80;0.30;;;25.70;48.00;;;;;;5042435;28;20040;-41
2021/08/02 06:07:41;;;;;;;0.20;0.10;;;25.70;48.00;;;;;;5033262;28;20513;-45
2021/08/02 06:10:10;;;;;;;1.48;0.10;;;25.70;48.00;;;;;;5044569;28;20040;-42
2021/08/02 06:12:37;;;;;;;0.10;0.10;;;25.70;48.00;;;;;;5039748;28;20048;-44
2021/08/02 06:15:07;;;;;;;0.10;0.10;;;25.70;48.00;;;;;;5049546;28;20057;-41
2021/08/02 06:17:35;;;;;;;0.90;0.10;;;25.80;48.10;;;;;;5042592;28;20578;-42
2021/08/02 06:20:02;;;;;;;0.28;0.10;;;25.70;48.10;;;;;;5037925;28;20122;-41
2021/08/02 06:22:29;;;;;;;2.80;0.10;;;25.70;48.00;;;;;;5035201;28;20037;-41
2021/08/02 06:24:56;;;;;;;0.30;0.30;;;25.70;48.10;;;;;;5033259;28;20045;-44
2021/08/02 06:27:23;;;;;;;0.10;0.10;;;25.70;48.00;;;;;;5036868;28;20079;-42
2021/08/02 06:29:50;;;;;;;0.40;0.10;;;25.80;48.10;;;;;;5037975;28;20115;-47
2021/08/02 06:32:19;;;;;;;0.38;0.10;;;25.80;48.10;;;;;;5041923;28;20037;-41
2021/08/02 06:34:46;;;;;;;0.20;0.20;;;25.80;48.10;;;;;;5048925;28;20581;-43
2021/08/02 06:37:13;;;;;;;1.17;0.22;;;25.80;48.10;;;;;;5033195;28;20037;-40
2021/08/02 06:39:40;;;;;;;0.10;0.10;;;25.80;48.10;;;;;;5046222;28;20064;-42
2021/08/02 06:42:08;;;;;;;0.20;0.10;;;25.80;48.10;;;;;;5037567;28;20041;-40
2021/08/02 06:44:36;;;;;;;0.10;0.10;;;25.80;48.00;;;;;;5037465;28;20053;-40
2021/08/02 06:47:04;;;;;;;0.85;0.20;;;25.80;48.10;;;;;;5037656;28;20037;-40
2021/08/02 06:49:32;;;;;;;0.77;0.20;;;25.80;48.10;;;;;;5035562;28;20048;-40
2021/08/02 06:51:59;;;;;;;0.20;0.20;;;25.80;48.00;;;;;;5033101;28;20045;-41
2021/08/02 06:54:26;;;;;;;0.40;0.10;;;25.80;48.00;;;;;;5048210;28;20041;-45
2021/08/02 06:56:53;;;;;;;0.57;0.10;;;25.80;48.00;;;;;;5048387;28;20576;-41
2021/08/02 06:59:20;;;;;;;2.50;0.25;;;25.80;48.10;;;;;;5044278;28;20051;-39
2021/08/02 07:01:48;;;;;;;0.10;0.10;;;25.80;48.00;;;;;;5037409;28;20115;-40
2021/08/02 07:04:15;;;;;;;0.57;0.20;;;25.80;48.00;;;;;;5045425;28;20132;-40
2021/08/02 07:06:44;;;;;;;0.28;0.22;;;25.80;48.00;;;;;;5045827;28;20045;-42
2021/08/02 07:09:11;;;;;;;0.10;0.10;;;25.90;48.70;;;;;;5048810;28;20078;-47
2021/08/02 07:11:38;;;;;;;0.20;0.10;;;25.80;48.00;;;;;;5041173;28;20125;-40
2021/08/02 07:14:05;;;;;;;0.17;0.17;;;25.80;48.00;;;;;;5044472;28;20785;-42
2021/08/02 07:16:33;;;;;;;0.10;0.10;;;25.90;48.10;;;;;;5048336;28;20051;-40
2021/08/02 07:19:00;;;;;;;1.10;0.10;;;25.90;48.10;;;;;;5048228;28;20629;-40
2021/08/02 07:21:27;;;;;;;1.33;0.20;;;25.90;48.10;;;;;;5032463;28;20045;-40
2021/08/02 07:23:56;;;;;;;0.60;0.28;;;25.90;48.10;;;;;;5044578;28;20481;-41
2021/08/02 07:26:24;;;;;;;0.45;0.45;;;25.90;48.10;;;;;;5043707;28;20403;-42
2021/08/02 07:28:51;;;;;;;0.80;0.30;;;25.90;48.10;;;;;;5037693;28;20045;-41
2021/08/02 07:31:18;;;;;;;0.65;0.13;;;25.90;48.00;;;;;;5033212;28;20037;-43
2021/08/02 07:33:45;;;;;;;1.00;0.35;;;25.90;48.00;;;;;;5049241;28;20419;-43
2021/08/02 07:36:13;;;;;;;0.30;0.20;;;25.90;48.60;;;;;;5036919;28;20506;-41
2021/08/02 07:38:43;;;;;;;0.85;0.20;;;25.90;48.00;;;;;;5044136;28;20061;-40
2021/08/02 07:41:11;;;;;;;1.83;0.38;;;25.90;48.00;;;;;;5047985;28;20052;-40
2021/08/02 07:43:39;;;;;;;0.88;0.60;;;26.00;48.10;;;;;;5048513;28;20091;-40
2021/08/02 07:46:06;;;;;;;0.30;0.20;;;25.90;48.00;;;;;;5048023;28;20044;-42
2021/08/02 07:48:33;;;;;;;1.00;0.28;;;26.00;48.00;;;;;;5049271;28;20048;-41
2021/08/02 07:51:00;;;;;;;0.20;0.20;;;26.00;48.00;;;;;;5037755;28;20053;-41
2021/08/02 07:53:27;;;;;;;0.70;0.30;;;26.00;48.00;;;;;;5036721;28;20073;-43
2021/08/02 07:55:55;;;;;;;0.20;0.20;;;26.00;48.00;;;;;;5037467;28;20507;-41
2021/08/02 07:58:23;;;;;;;0.30;0.28;;;26.00;48.00;;;;;;5048148;28;20057;-40
2021/08/02 08:00:50;;;;;;;0.30;0.10;;;26.00;48.00;;;;;;5048344;28;20048;-40
2021/08/02 08:03:19;;;;;;;0.98;0.35;;;26.00;48.00;;;;;;5048912;28;20099;-40
2021/08/02 08:05:47;;;;;;;4.03;0.17;;;26.00;48.00;;;;;;5047801;28;20045;-41
2021/08/02 08:08:14;;;;;;;0.47;0.45;;;26.00;48.00;;;;;;5043749;28;20050;-40
2021/08/02 08:10:42;;;;;;;1.10;0.47;;;26.00;48.00;;;;;;5035627;28;20102;-44
2021/08/02 08:13:09;;;;;;;0.80;0.30;;;26.10;48.00;;;;;;5041060;28;20045;-46
2021/08/02 08:15:38;;;;;;;0.68;0.52;;;26.10;48.00;;;;;;5033244;28;20400;-41
2021/08/02 08:18:05;;;;;;;3.40;0.57;;;26.10;48.00;;;;;;5046499;28;20115;-40
2021/08/02 08:20:32;;;;;;;0.30;0.30;;;26.10;48.00;;;;;;5041376;28;20499;-41
2021/08/02 08:23:00;;;;;;;0.80;0.80;;;26.10;48.00;;;;;;5037854;28;20049;-41
2021/08/02 08:25:27;;;;;;;2.35;0.20;;;26.10;47.90;;;;;;5047793;28;20723;-41
2021/08/02 08:27:54;;;;;;;0.20;0.10;;;26.10;47.90;;;;;;5049040;28;20051;-43
2021/08/02 08:30:22;;;;;;;0.55;0.30;;;26.10;47.90;;;;;;5034177;28;20045;-40
2021/08/02 08:32:51;;;;;;;0.50;0.40;;;26.10;47.90;;;;;;5044265;28;20139;-41
2021/08/02 08:35:18;;;;;;;0.50;0.40;;;26.20;48.00;;;;;;5042579;28;20419;-41
2021/08/02 08:37:46;;;;;;;0.65;0.32;;;26.10;47.90;;;;;;5035542;28;20853;-43
2021/08/02 08:40:13;;;;;;;0.40;0.30;;;26.20;48.00;;;;;;5046794;28;20037;-40
2021/08/02 08:42:42;;;;;;;2.05;0.40;;;26.10;47.90;;;;;;5032793;28;20049;-40
2021/08/02 08:45:10;;;;;;;1.00;0.30;;;26.20;47.90;;;;;;5045138;28;20136;-40
2021/08/02 08:47:37;;;;;;;1.13;0.47;;;26.20;47.90;;;;;;5046552;28;20481;-45
2021/08/02 08:50:08;;;;;;;0.30;0.30;;;26.20;48.00;;;;;;5042945;28;20734;-43
2021/08/02 08:52:36;;;;;;;0.90;0.40;;;26.20;47.80;;;;;;5034103;28;20057;-44
2021/08/02 08:55:06;;;;;;;0.88;0.32;;;26.20;47.90;;;;;;5045518;28;20041;-43
2021/08/02 08:57:35;;;;;;;3.10;0.38;;;26.20;47.80;;;;;;5046705;28;20049;-44
2021/08/02 09:00:02;;;;;;;0.40;0.40;;;26.20;47.90;;;;;;5035696;28;20037;-41
2021/08/02 09:02:31;;;;;;;0.68;0.65;;;26.20;47.80;;;;;;5041339;28;20055;-42
2021/08/02 09:05:00;;;;;;;0.40;0.40;;;26.20;47.80;;;;;;5044801;28;20529;-41
2021/08/02 09:07:36;;;;;;;0.28;0.28;;;26.30;47.80;;;;;;5046720;28;20056;-46
2021/08/02 09:10:05;;;;;;;0.43;0.43;;;26.30;47.80;;;;;;5030367;28;20057;-42
2021/08/02 09:12:33;;;;;;;1.05;0.30;;;26.20;47.70;;;;;;5037928;28;20040;-41
2021/08/02 09:15:06;;;;;;;0.45;0.35;;;26.30;47.80;;;;;;5046291;28;20582;-42
2021/08/02 09:17:34;;;;;;;1.50;0.20;;;26.30;47.70;;;;;;5046224;28;20415;-44
2021/08/02 09:20:04;;;;;;;0.57;0.50;;;26.30;47.70;;;;;;5044729;28;20127;-43
2021/08/02 09:22:34;;;;;;;0.60;0.57;;;26.30;47.70;;;;;;5033172;28;20102;-42
2021/08/02 09:25:07;;;;;;;2.50;1.20;;;26.30;47.70;;;;;;5046126;28;20068;-42
2021/08/02 09:27:35;;;;;;;0.75;0.68;;;26.30;47.60;;;;;;5032988;28;20507;-41
2021/08/02 09:30:17;;;;;;;0.65;0.30;;;26.30;47.70;;;;;;5034735;28;20052;-41
2021/08/02 09:32:48;;;;;;;1.08;0.32;;;26.30;47.50;;;;;;5042606;28;20120;-44
2021/08/02 09:35:31;;;;;;;0.63;0.50;;;26.40;47.60;;;;;;5042491;28;20574;-41
2021/08/02 09:38:03;;;;;;;0.30;0.20;;;26.30;47.50;;;;;;5035056;28;20502;-41
2021/08/02 09:40:38;;;;;;;0.30;0.30;;;26.30;47.50;;;;;;5032712;28;20087;-41
2021/08/02 09:43:05;;;;;;;0.50;0.40;;;26.40;47.50;;;;;;5030333;28;20047;-41
2021/08/02 09:45:45;;;;;;;0.63;0.40;;;26.40;47.60;;;;;;5047148;28;20060;-43
2021/08/02 09:48:17;;;;;;;2.78;0.30;;;26.40;47.60;;;;;;5034831;28;20136;-43
2021/08/02 09:50:45;;;;;;;0.50;0.50;;;26.40;47.60;;;;;;5042903;28;20434;-41
2021/08/02 09:53:16;;;;;;;0.70;0.40;;;26.40;47.60;;;;;;5042742;28;20751;-45
2021/08/02 09:55:44;;;;;;;2.53;0.40;;;26.40;48.10;;;;;;5034521;28;20049;-47
2021/08/02 09:58:14;;;;;;;1.25;0.32;;;26.40;47.50;;;;;;5045975;28;20049;-46
2021/08/02 10:00:42;;;;;;;1.33;1.02;;;26.40;47.40;;;;;;5043392;28;20426;-45
2021/08/02 10:03:10;;;;;;;0.85;0.85;;;26.50;47.40;;;;;;5035161;28;20430;-44
2021/08/02 10:05:38;;;;;;;1.48;0.40;;;26.50;47.40;;;;;;5034317;28;20040;-42
2021/08/02 10:08:07;;;;;;;0.32;0.30;;;26.50;47.30;;;;;;5034124;28;20049;-42
2021/08/02 10:10:38;;;;;;;0.40;0.38;;;26.50;47.30;;;;;;5033312;28;20164;-44
2021/08/02 10:13:06;;;;;;;0.80;0.63;;;26.50;47.20;;;;;;5045587;28;20041;-41
2021/08/02 10:15:34;;;;;;;0.57;0.30;;;26.50;47.20;;;;;;5029100;28;20099;-45
2021/08/02 10:18:04;;;;;;;0.65;0.22;;;26.50;47.20;;;;;;5044815;28;20103;-45
2021/08/02 10:20:33;;;;;;;0.35;0.32;;;26.50;47.20;;;;;;5039222;28;20057;-41
2021/08/02 10:23:01;;;;;;;0.22;0.20;;;26.60;47.20;;;;;;5034415;28;20602;-41
2021/08/02 10:25:33;;;;;;;0.60;0.60;;;26.60;47.20;;;;;;5032023;28;20147;-44
2021/08/02 10:28:11;;;;;;;0.70;0.30;;;26.60;47.10;;;;;;5027910;28;20045;-46
2021/08/02 10:30:40;;;;;;;0.20;0.20;;;26.60;47.10;;;;;;5045814;28;20049;-43
2021/08/02 10:33:08;;;;;;;0.45;0.20;;;26.60;47.10;;;;;;5045271;28;20131;-42
2021/08/02 10:35:42;;;;;;;0.38;0.30;;;26.60;47.10;;;;;;5045536;28;20049;-42
2021/08/02 10:38:12;;;;;;;3.50;0.47;;;26.60;47.10;;;;;;5045513;28;20163;-46
2021/08/02 10:40:51;;;;;;;0.20;0.20;;;26.60;47.00;;;;;;5045806;28;20071;-44
2021/08/02 10:43:30;;;;;;;0.30;0.30;;;26.70;47.00;;;;;;5030417;28;20465;-43
2021/08/02 10:45:58;;;;;;;1.42;0.43;;;26.70;47.00;;;;;;5045399;28;20088;-41
2021/08/02 10:48:28;;;;;;;0.40;0.40;;;26.70;47.00;;;;;;5040270;28;20049;-44
2021/08/02 10:50:56;;;;;;;1.20;0.28;;;26.70;47.00;;;;;;5045333;28;20133;-42
2021/08/02 10:53:23;;;;;;;0.60;0.20;;;26.70;47.00;;;;;;5045302;28;20418;-41
2021/08/02 10:55:52;;;;;;;0.20;0.20;;;26.70;46.90;;;;;;5044772;28;20051;-41
2021/08/02 10:58:32;;;;;;;1.02;0.30;;;26.70;46.90;;;;;;5032219;28;20040;-41
2021/08/02 11:01:01;;;;;;;0.30;0.28;;;26.80;46.90;;;;;;5032993;28;20057;-41
2021/08/02 11:03:34;;;;;;;3.10;0.50;;;26.70;46.90;;;;;;5036169;28;20049;-42
2021/08/02 11:06:12;;;;;;;1.48;0.82;;;26.80;46.90;;;;;;5019590;28;20060;-44
2021/08/02 11:08:44;;;;;;;0.30;0.30;;;26.80;46.90;;;;;;5037384;28;20144;-43
2021/08/02 11:11:18;;;;;;;0.20;0.15;;;26.80;47.50;;;;;;5037159;28;20068;-43
2021/08/02 11:13:47;;;;;;;0.63;0.20;;;26.80;46.80;;;;;;5043655;28;20045;-42
2021/08/02 11:16:15;;;;;;;1.65;0.22;;;26.80;46.80;;;;;;5033072;28;20454;-41
2021/08/02 11:18:44;;;;;;;0.20;0.20;;;26.80;46.80;;;;;;5044452;28;20060;-40
2021/08/02 11:21:23;;;;;;;0.52;0.20;;;26.80;46.80;;;;;;5049159;28;20041;-42
2021/08/02 11:23:51;;;;;;;0.57;0.20;;;26.90;46.80;;;;;;5048434;28;20124;-43
2021/08/02 11:26:20;;;;;;;0.20;0.20;;;26.90;46.80;;;;;;5041024;28;20049;-43
2021/08/02 11:28:50;;;;;;;0.40;0.38;;;26.90;46.80;;;;;;5037414;28;20049;-44
2021/08/02 11:31:18;;;;;;;0.63;0.38;;;26.90;46.70;;;;;;5032386;28;20106;-42
2021/08/02 11:33:46;;;;;;;1.02;0.30;;;26.90;47.30;;;;;;5049425;28;20036;-41
2021/08/02 11:36:18;;;;;;;0.75;0.20;;;26.90;46.70;;;;;;5036694;28;20041;-43
2021/08/02 11:38:47;;;;;;;0.30;0.10;;;26.90;46.70;;;;;;5036864;28;20071;-42
2021/08/02 11:41:27;;;;;;;0.38;0.13;;;27.00;46.80;;;;;;5040236;28;20039;-42
2021/08/02 11:43:58;;;;;;;1.33;0.20;;;27.00;46.70;;;;;;5047609;28;20056;-46
2021/08/02 11:46:26;;;;;;;0.25;0.25;;;27.00;46.70;;;;;;5047790;28;20142;-44
2021/08/02 11:48:54;;;;;;;1.65;0.38;;;27.00;46.70;;;;;;5047944;28;20140;-44
2021/08/02 11:51:21;;;;;;;0.52;0.20;;;27.00;46.70;;;;;;5048887;28;20041;-45
2021/08/02 11:53:48;;;;;;;0.60;0.17;;;27.00;46.60;;;;;;5046918;28;20040;-47
2021/08/02 11:56:15;;;;;;;1.45;0.30;;;27.00;46.60;;;;;;5043870;28;20045;-41
2021/08/02 11:58:45;;;;;;;3.45;0.20;;;27.10;46.70;;;;;;5035229;28;20311;-45
2021/08/02 12:01:14;;;;;;;0.20;0.20;;;27.10;46.80;;;;;;5047478;28;20056;-41
2021/08/02 12:03:45;;;;;;;0.40;0.10;;;27.10;46.60;;;;;;5059805;28;20049;-40
2021/08/02 12:06:12;;;;;;;0.20;0.10;;;27.10;46.60;;;;;;5048134;28;20135;-41
2021/08/02 12:08:50;;;;;;;0.50;0.20;;;27.20;46.60;;;;;;5047061;28;20523;-48
2021/08/02 12:11:18;;;;;;;0.70;0.30;;;27.20;46.60;;;;;;5043149;28;20054;-47
2021/08/02 12:13:47;;;;;;;0.30;0.20;;;27.20;46.70;;;;;;5042099;28;20128;-45
2021/08/02 12:16:28;;;;;;;0.50;0.20;;;27.20;46.60;;;;;;5031974;28;20068;-48
2021/08/02 12:19:09;;;;;;;1.05;0.43;;;27.30;46.50;;;;;;5045082;28;20045;-42
2021/08/02 12:21:37;;;;;;;0.22;0.20;;;27.30;46.50;;;;;;5033253;28;20533;-43
2021/08/02 12:24:07;;;;;;;0.47;0.47;;;27.30;46.60;;;;;;5046202;28;20057;-41
2021/08/02 12:26:36;;;;;;;0.20;0.20;;;27.30;46.50;;;;;;5040396;28;20128;-42
2021/08/02 12:29:03;;;;;;;1.08;0.30;;;27.30;46.50;;;;;;5035820;28;20574;-40
2021/08/02 12:31:38;;;;;;;0.30;0.20;;;27.30;46.40;;;;;;5033753;28;20060;-41
2021/08/02 12:34:05;;;;;;;2.25;0.13;;;27.40;46.50;;;;;;5047107;28;20057;-44
2021/08/02 12:36:32;;;;;;;0.52;0.20;;;27.40;46.50;;;;;;5048591;28;20055;-43
2021/08/02 12:38:59;;;;;;;0.90;0.20;;;27.50;46.50;;;;;;5037026;28;20053;-41
2021/08/02 12:41:27;;;;;;;0.40;0.32;;;27.50;46.40;;;;;;5041422;28;20223;-42
2021/08/02 12:43:55;;;;;;;1.33;0.43;;;27.50;46.30;;;;;;5047147;28;20049;-41
2021/08/02 12:46:22;;;;;;;0.20;0.20;;;27.60;46.30;;;;;;5046440;28;20061;-41
2021/08/02 12:48:51;;;;;;;0.40;0.20;;;27.60;46.20;;;;;;5047513;28;20099;-42
2021/08/02 12:51:19;;;;;;;0.10;0.10;;;27.60;46.20;;;;;;5047028;28;20044;-42
2021/08/02 12:53:46;;;;;;;0.82;0.25;;;27.70;46.20;;;;;;5038935;28;20045;-42
2021/08/02 12:56:13;;;;;;;0.52;0.15;;;27.60;46.00;;;;;;5039077;28;20040;-41
2021/08/02 12:58:40;;;;;;;0.45;0.20;;;27.70;45.90;;;;;;5046720;28;20048;-42
2021/08/02 13:01:08;;;;;;;0.45;0.20;;;27.70;45.80;;;;;;5045117;28;20063;-42